createdAt,value
2022-12-14T00:00:42.751Z,97784.82
2022-12-14T00:03:54.831Z,97776.44
2022-12-14T00:06:58.090Z,97771.04
2022-12-14T00:10:01.141Z,97773.08
2022-12-14T00:13:06.494Z,97776.58
2022-12-14T00:16:15.066Z,97778.77
2022-12-14T00:19:18.252Z,97779.05
2022-12-14T00:22:21.246Z,97775.16
2022-12-14T00:25:25.292Z,97771.84
2022-12-14T00:28:28.912Z,97770.79
2022-12-14T00:31:32.756Z,97764.54
2022-12-14T00:34:35.914Z,97764.24
2022-12-14T00:37:39.457Z,97767.48
2022-12-14T00:40:42.878Z,97765.94
2022-12-14T00:43:49.218Z,97762.45
2022-12-14T00:46:52.782Z,97758.16
2022-12-14T00:49:55.843Z,97753.16
2022-12-14T00:52:58.863Z,97750.02
2022-12-14T00:56:06.950Z,97748.56
2022-12-14T00:59:09.939Z,97748.55
2022-12-14T01:02:12.982Z,97751.27
2022-12-14T01:05:49.088Z,97751.39
2022-12-14T01:08:52.668Z,97754.81
2022-12-14T01:11:55.840Z,97753.98
2022-12-14T01:14:58.915Z,97754.59
2022-12-14T01:18:01.953Z,97753.65
2022-12-14T01:21:12.996Z,97748.04
2022-12-14T01:24:16.021Z,97741.70
2022-12-14T01:27:19.039Z,97732.81
2022-12-14T01:30:22.044Z,97734.39
2022-12-14T01:33:25.364Z,97733.00
2022-12-14T01:36:31.269Z,97726.77
2022-12-14T01:39:34.271Z,97721.04
2022-12-14T01:42:37.822Z,97718.85
2022-12-14T01:45:43.247Z,97722.89
2022-12-14T01:48:47.048Z,97713.89
2022-12-14T01:51:57.987Z,97708.41
2022-12-14T01:55:07.063Z,97707.41
2022-12-14T01:58:16.242Z,97702.00
2022-12-14T02:01:19.452Z,97709.11
2022-12-14T02:04:22.965Z,97708.98
2022-12-14T02:07:29.618Z,97710.07
2022-12-14T02:10:32.879Z,97703.58
2022-12-14T02:13:40.630Z,97702.38
2022-12-14T02:16:43.716Z,97697.86
2022-12-14T02:19:49.411Z,97688.23
2022-12-14T02:22:55.602Z,97688.19
2022-12-14T02:26:33.990Z,97688.55
2022-12-14T02:29:58.097Z,97695.04
2022-12-14T02:33:44.515Z,97692.79
2022-12-14T02:37:03.005Z,97696.71
2022-12-14T02:40:28.013Z,97688.06
2022-12-14T02:43:49.608Z,97681.70
2022-12-14T02:47:26.196Z,97677.95
2022-12-14T02:50:58.069Z,97673.36
2022-12-14T02:54:13.001Z,97675.84
2022-12-14T02:57:25.442Z,97677.52
2022-12-14T03:00:32.458Z,97674.96
2022-12-14T03:03:35.544Z,97670.51
2022-12-14T03:06:38.618Z,97663.98
2022-12-14T03:09:41.592Z,97666.59
2022-12-14T03:12:50.809Z,97667.45
2022-12-14T03:16:19.797Z,97663.42
2022-12-14T03:19:39.725Z,97669.86
2022-12-14T03:22:51.946Z,97675.85
2022-12-14T03:26:09.749Z,97669.72
2022-12-14T03:29:25.395Z,97666.33
2022-12-14T03:32:31.513Z,97661.52
2022-12-14T03:35:39.859Z,97658.65
2022-12-14T03:38:45.454Z,97658.85
2022-12-14T03:42:02.712Z,97660.04
2022-12-14T03:45:41.117Z,97662.27
2022-12-14T03:48:56.334Z,97665.33
2022-12-14T03:52:17.710Z,97667.25
2022-12-14T03:55:20.726Z,97660.22
2022-12-14T03:58:26.709Z,97663.48
2022-12-14T04:01:46.550Z,97664.31
2022-12-14T04:05:00.668Z,97664.35
2022-12-14T04:08:20.775Z,97662.30
2022-12-14T04:11:46.703Z,97653.98
2022-12-14T04:15:21.695Z,97648.40
2022-12-14T04:18:55.710Z,97651.08
2022-12-14T04:22:07.583Z,97648.24
2022-12-14T04:25:37.421Z,97651.45
2022-12-14T04:29:10.333Z,97645.56
2022-12-14T04:32:15.474Z,97639.05
2022-12-14T04:35:29.313Z,97636.98
2022-12-14T04:38:36.460Z,97637.75
2022-12-14T04:41:45.272Z,97640.64
2022-12-14T04:44:53.696Z,97640.68
2022-12-14T04:48:29.179Z,97629.95
2022-12-14T04:52:07.407Z,97624.98
2022-12-14T04:55:10.510Z,97616.20
2022-12-14T04:58:22.468Z,97609.59
2022-12-14T05:02:13.089Z,97605.58
2022-12-14T05:05:44.721Z,97595.42
2022-12-14T05:09:02.779Z,97593.89
2022-12-14T05:12:16.044Z,97589.80
2022-12-14T05:15:23.846Z,97576.48
2022-12-14T05:18:27.074Z,97572.17
2022-12-14T05:21:48.909Z,97574.55
2022-12-14T05:24:51.956Z,97573.19
2022-12-14T05:27:54.976Z,97572.36
2022-12-14T05:30:57.980Z,97567.06
2022-12-14T05:34:01.138Z,97571.53
2022-12-14T05:37:04.373Z,97570.12
2022-12-14T05:40:08.605Z,97566.84
2022-12-14T05:43:12.405Z,97567.20
2022-12-14T05:46:15.501Z,97566.27
2022-12-14T05:49:18.616Z,97563.63
2022-12-14T05:52:25.837Z,97565.20
2022-12-14T05:55:28.846Z,97566.69
2022-12-14T05:58:32.778Z,97564.59
2022-12-14T06:01:35.824Z,97565.57
2022-12-14T06:04:39.143Z,97560.66
2022-12-14T06:07:42.279Z,97567.52
2022-12-14T06:10:45.204Z,97570.08
2022-12-14T06:13:49.308Z,97570.00
2022-12-14T06:16:52.393Z,97560.45
2022-12-14T06:19:55.351Z,97554.70
2022-12-14T06:22:58.382Z,97548.11
2022-12-14T06:26:01.439Z,97551.41
2022-12-14T06:29:04.756Z,97550.82
2022-12-14T06:32:07.745Z,97542.55
2022-12-14T06:35:10.742Z,97546.15
2022-12-14T06:38:15.132Z,97541.36
2022-12-14T06:41:18.764Z,97545.42
2022-12-14T06:44:21.824Z,97544.40
2022-12-14T06:47:25.866Z,97545.23
2022-12-14T06:50:28.834Z,97541.63
2022-12-14T06:53:32.713Z,97532.89
2022-12-14T06:56:36.983Z,97525.64
2022-12-14T06:59:40.027Z,97523.52
2022-12-14T07:02:43.249Z,97524.09
2022-12-14T07:05:49.092Z,97523.15
2022-12-14T07:08:59.140Z,97521.23
2022-12-14T07:12:02.175Z,97523.36
2022-12-14T07:15:05.706Z,97517.27
2022-12-14T07:18:08.688Z,97516.54
2022-12-14T07:21:15.577Z,97514.50
2022-12-14T07:24:18.729Z,97513.96
2022-12-14T07:27:21.798Z,97511.67
2022-12-14T07:30:24.793Z,97507.61
2022-12-14T07:33:29.088Z,97502.15
2022-12-14T07:36:33.105Z,97504.93
2022-12-14T07:39:36.283Z,97501.19
2022-12-14T07:42:39.297Z,97507.76
2022-12-14T07:45:46.131Z,97501.99
2022-12-14T07:48:52.203Z,97503.73
2022-12-14T07:51:55.250Z,97504.68
2022-12-14T07:54:58.267Z,97506.52
2022-12-14T07:58:02.478Z,97502.77
2022-12-14T08:01:14.059Z,97495.89
2022-12-14T08:04:20.250Z,97496.80
2022-12-14T08:07:23.471Z,97495.13
2022-12-14T08:10:26.634Z,97491.85
2022-12-14T08:13:30.669Z,97492.63
2022-12-14T08:16:34.292Z,97488.03
2022-12-14T08:19:37.387Z,97497.65
2022-12-14T08:22:40.485Z,97497.14
2022-12-14T08:25:44.118Z,97489.96
2022-12-14T08:28:48.779Z,97501.32
2022-12-14T08:31:56.045Z,97503.59
2022-12-14T08:34:59.219Z,97497.75
2022-12-14T08:38:03.081Z,97494.48
2022-12-14T08:41:11.442Z,97492.08
2022-12-14T08:44:17.197Z,97494.52
2022-12-14T08:47:20.323Z,97497.50
2022-12-14T08:50:23.589Z,97502.58
2022-12-14T08:53:27.056Z,97503.33
2022-12-14T08:56:30.468Z,97506.10
2022-12-14T09:00:00.074Z,97509.81
2022-12-14T09:02:56.646Z,97506.03
2022-12-14T09:06:06.917Z,97497.52
2022-12-14T09:09:16.109Z,97491.13
2022-12-14T09:12:20.802Z,97486.55
2022-12-14T09:15:23.861Z,97483.75
2022-12-14T09:18:28.001Z,97487.23
2022-12-14T09:21:49.700Z,97483.43
2022-12-14T09:24:52.856Z,97480.02
2022-12-14T09:27:55.913Z,97472.81
2022-12-14T09:31:04.385Z,97461.02
2022-12-14T09:34:07.852Z,97457.36
2022-12-14T09:37:10.982Z,97459.31
2022-12-14T09:40:14.475Z,97459.25
2022-12-14T09:43:44.977Z,97458.48
2022-12-14T09:47:12.010Z,97445.82
2022-12-14T09:50:19.217Z,97441.48
2022-12-14T09:53:23.149Z,97438.63
2022-12-14T09:56:26.647Z,97439.25
2022-12-14T09:59:31.922Z,97437.27
2022-12-14T10:02:46.207Z,97436.74
2022-12-14T10:06:11.459Z,97437.96
2022-12-14T10:09:34.836Z,97441.90
2022-12-14T10:13:19.643Z,97435.06
2022-12-14T10:16:35.391Z,97432.51
2022-12-14T10:19:56.016Z,97429.86
2022-12-14T10:23:02.154Z,97424.63
2022-12-14T10:26:09.728Z,97428.36
2022-12-14T10:29:28.206Z,97422.25
2022-12-14T10:32:39.753Z,97422.55
2022-12-14T10:35:54.575Z,97415.36
2022-12-14T10:38:59.179Z,97407.75
2022-12-14T10:42:10.967Z,97400.21
2022-12-14T10:45:41.118Z,97390.71
2022-12-14T10:49:16.420Z,97383.23
2022-12-14T10:52:23.494Z,97377.36
2022-12-14T10:55:34.877Z,97373.14
2022-12-14T10:58:37.910Z,97364.48
2022-12-14T11:01:44.142Z,97361.01
2022-12-14T11:04:56.511Z,97350.61
2022-12-14T11:08:00.083Z,97345.83
2022-12-14T11:11:18.894Z,97337.84
2022-12-14T11:14:23.551Z,97331.54
2022-12-14T11:17:31.166Z,97325.91
2022-12-14T11:20:34.583Z,97325.46
2022-12-14T11:23:48.301Z,97319.77
2022-12-14T11:26:59.249Z,97310.96
2022-12-14T11:30:04.984Z,97306.05
2022-12-14T11:33:16.935Z,97300.45
2022-12-14T11:36:40.193Z,97302.81
2022-12-14T11:39:43.587Z,97298.57
2022-12-14T11:42:51.582Z,97294.34
2022-12-14T11:45:57.171Z,97283.27
2022-12-14T11:49:00.377Z,97277.82
2022-12-14T11:52:06.228Z,97278.47
2022-12-14T11:55:26.159Z,97270.64
2022-12-14T11:58:34.756Z,97267.09
2022-12-14T12:01:38.080Z,97258.45
2022-12-14T12:04:49.200Z,97257.09
2022-12-14T12:07:58.239Z,97249.84
2022-12-14T12:11:05.118Z,97244.10
2022-12-14T12:14:29.008Z,97232.31
2022-12-14T12:17:43.511Z,97223.02
2022-12-14T12:21:10.144Z,97217.03
2022-12-14T12:24:21.447Z,97206.27
2022-12-14T12:27:25.954Z,97192.16
2022-12-14T12:30:34.409Z,97187.04
2022-12-14T12:33:44.885Z,97175.44
2022-12-14T12:37:24.148Z,97168.09
2022-12-14T12:40:46.967Z,97160.95
2022-12-14T12:43:56.046Z,97160.73
2022-12-14T12:47:29.934Z,97155.54
2022-12-14T12:50:49.975Z,97144.17
2022-12-14T12:53:59.953Z,97139.09
2022-12-14T12:57:07.230Z,97135.37
2022-12-14T13:00:18.316Z,97136.13
2022-12-14T13:03:45.314Z,97134.07
2022-12-14T13:06:57.649Z,97131.27
2022-12-14T13:10:15.875Z,97120.28
2022-12-14T13:13:24.223Z,97115.70
2022-12-14T13:16:33.622Z,97106.15
2022-12-14T13:19:52.073Z,97104.41
2022-12-14T13:23:05.696Z,97097.23
2022-12-14T13:26:57.198Z,97087.22
2022-12-14T13:30:23.537Z,97078.27
2022-12-14T13:33:35.629Z,97069.49
2022-12-14T13:36:51.214Z,97052.38
2022-12-14T13:40:12.340Z,97042.18
2022-12-14T13:43:34.384Z,97031.60
2022-12-14T13:46:38.676Z,97043.73
2022-12-14T13:50:11.348Z,97048.16
2022-12-14T13:53:40.329Z,97035.23
2022-12-14T13:56:44.631Z,97037.35
2022-12-14T13:59:54.565Z,97027.30
2022-12-14T14:03:01.168Z,97014.02
2022-12-14T14:06:18.596Z,97012.91
2022-12-14T14:09:33.549Z,97008.56
2022-12-14T14:12:44.114Z,97000.23
2022-12-14T14:16:26.945Z,96994.86
2022-12-14T14:19:25.846Z,96981.52
2022-12-14T14:22:32.184Z,96981.05
2022-12-14T14:25:46.571Z,96987.06
2022-12-14T14:29:32.724Z,96978.41
2022-12-14T14:32:40.271Z,96985.36
2022-12-14T14:35:43.776Z,96990.05
2022-12-14T14:38:47.483Z,96994.67
2022-12-14T14:41:53.289Z,96989.73
2022-12-14T14:45:02.860Z,96994.31
2022-12-14T14:48:50.420Z,96992.91
2022-12-14T14:51:57.041Z,96984.04
2022-12-14T14:55:54.071Z,96968.41
2022-12-14T14:59:21.354Z,96956.42
2022-12-14T15:02:39.470Z,96947.41
2022-12-14T15:05:43.691Z,96942.55
2022-12-14T15:08:54.123Z,96952.77
2022-12-14T15:12:04.977Z,96948.42
2022-12-14T15:15:27.016Z,96942.14
2022-12-14T15:18:32.220Z,96938.77
2022-12-14T15:21:37.594Z,96944.73
2022-12-14T15:24:43.999Z,96951.81
2022-12-14T15:27:47.906Z,96954.39
2022-12-14T15:30:51.147Z,96947.02
2022-12-14T15:33:54.947Z,96948.52
2022-12-14T15:36:57.985Z,96949.02
2022-12-14T15:40:23.067Z,96943.06
2022-12-14T15:43:28.139Z,96944.61
2022-12-14T15:46:34.756Z,96945.14
2022-12-14T15:49:38.022Z,96937.77
2022-12-14T15:52:42.748Z,96943.54
2022-12-14T15:56:00.320Z,96947.35
2022-12-14T15:59:14.119Z,96946.27
2022-12-14T16:02:31.376Z,96948.13
2022-12-14T16:05:35.809Z,96946.48
2022-12-14T16:09:03.158Z,96933.46
2022-12-14T16:12:44.173Z,96929.67
2022-12-14T16:15:49.437Z,96922.70
2022-12-14T16:18:53.620Z,96925.74
2022-12-14T16:22:10.353Z,96920.63
2022-12-14T16:25:19.999Z,96913.80
2022-12-14T16:28:32.169Z,96912.99
2022-12-14T16:31:38.029Z,96915.16
2022-12-14T16:34:58.933Z,96914.67
2022-12-14T16:38:08.804Z,96910.40
2022-12-14T16:41:12.001Z,96906.81
2022-12-14T16:44:36.959Z,96902.08
2022-12-14T16:48:06.675Z,96894.78
2022-12-14T16:52:05.786Z,96883.90
2022-12-14T16:55:15.344Z,96877.15
2022-12-14T16:58:18.825Z,96872.91
2022-12-14T17:01:23.638Z,96870.55
2022-12-14T17:04:35.111Z,96873.23
2022-12-14T17:07:38.734Z,96871.42
2022-12-14T17:10:41.865Z,96871.02
2022-12-14T17:13:45.319Z,96870.35
2022-12-14T17:17:02.307Z,96862.88
2022-12-14T17:20:14.101Z,96858.38
2022-12-14T17:23:18.983Z,96851.69
2022-12-14T17:26:32.814Z,96853.23
2022-12-14T17:29:36.496Z,96847.04
2022-12-14T17:32:39.583Z,96843.77
2022-12-14T17:35:43.585Z,96847.20
2022-12-14T17:38:47.216Z,96848.57
2022-12-14T17:41:51.186Z,96846.70
2022-12-14T17:44:58.441Z,96847.59
2022-12-14T17:48:02.191Z,96844.39
2022-12-14T17:51:06.540Z,96837.27
2022-12-14T17:54:19.883Z,96830.14
2022-12-14T17:57:27.186Z,96819.04
2022-12-14T18:00:49.951Z,96817.07
2022-12-14T18:03:53.875Z,96820.81
2022-12-14T18:06:57.819Z,96818.70
2022-12-14T18:10:02.499Z,96818.48
2022-12-14T18:13:05.634Z,96820.41
2022-12-14T18:16:18.100Z,96826.67
2022-12-14T18:19:22.470Z,96835.52
2022-12-14T18:22:26.621Z,96827.79
2022-12-14T18:25:37.333Z,96824.56
2022-12-14T18:28:42.802Z,96812.40
2022-12-14T18:31:46.471Z,96811.47
2022-12-14T18:34:52.769Z,96807.21
2022-12-14T18:37:56.390Z,96796.37
2022-12-14T18:41:01.914Z,96790.88
2022-12-14T18:44:05.438Z,96788.85
2022-12-14T18:47:33.626Z,96790.55
2022-12-14T18:50:32.894Z,96784.90
2022-12-14T18:53:36.475Z,96786.84
2022-12-14T18:56:42.188Z,96787.62
2022-12-14T18:59:45.298Z,96784.80
2022-12-14T19:02:49.840Z,96781.86
2022-12-14T19:06:26.830Z,96773.85
2022-12-14T19:09:26.264Z,96773.70
2022-12-14T19:12:29.396Z,96760.92
2022-12-14T19:15:35.070Z,96765.38
2022-12-14T19:18:38.613Z,96762.46
2022-12-14T19:21:41.633Z,96751.27
2022-12-14T19:24:49.151Z,96754.09
2022-12-14T19:31:18.573Z,96746.94
2022-12-14T19:34:21.854Z,96746.36
2022-12-14T19:37:25.012Z,96750.31
2022-12-14T19:40:28.024Z,96749.67
2022-12-14T19:43:31.802Z,96742.96
2022-12-14T19:46:35.158Z,96741.40
2022-12-14T19:49:38.279Z,96741.00
2022-12-14T19:52:42.381Z,96746.83
2022-12-14T19:55:52.438Z,96741.13
2022-12-14T19:58:57.826Z,96733.91
2022-12-14T20:02:02.336Z,96740.79
2022-12-14T20:05:06.497Z,96739.12
2022-12-14T20:08:09.574Z,96738.34
2022-12-14T20:11:12.585Z,96732.59
2022-12-14T20:14:15.699Z,96737.32
2022-12-14T20:17:19.236Z,96732.88
2022-12-14T20:20:23.123Z,96736.66
2022-12-14T20:23:26.206Z,96735.37
2022-12-14T20:26:29.845Z,96740.31
2022-12-14T20:29:33.704Z,96747.49
2022-12-14T20:32:36.896Z,96750.98
2022-12-14T20:35:39.896Z,96753.24
2022-12-14T20:38:42.931Z,96751.33
2022-12-14T20:41:46.047Z,96746.17
2022-12-14T20:44:49.447Z,96748.89
2022-12-14T20:47:53.819Z,96752.15
2022-12-14T20:51:01.974Z,96756.23
2022-12-14T20:54:08.021Z,96744.38
2022-12-14T20:57:11.141Z,96743.45
2022-12-14T21:00:14.946Z,96748.38
2022-12-14T21:03:18.027Z,96750.06
2022-12-14T21:06:22.887Z,96745.29
2022-12-14T21:09:26.068Z,96746.81
2022-12-14T21:12:29.078Z,96750.48
2022-12-14T21:15:32.022Z,96748.01
2022-12-14T21:18:35.064Z,96751.06
2022-12-14T21:21:38.602Z,96751.64
2022-12-14T21:25:02.573Z,96752.48
2022-12-14T21:28:05.336Z,96753.86
2022-12-14T21:31:09.180Z,96748.06
2022-12-14T21:34:17.671Z,96743.33
2022-12-14T21:37:20.995Z,96741.30
2022-12-14T21:40:42.872Z,96738.73
2022-12-14T21:43:46.052Z,96754.32
2022-12-14T21:46:49.236Z,96758.52
2022-12-14T21:49:53.029Z,96754.98
2022-12-14T21:52:56.584Z,96754.48
2022-12-14T21:56:19.753Z,96747.05
2022-12-14T21:59:28.990Z,96741.46
2022-12-14T22:02:32.148Z,96737.77
2022-12-14T22:05:38.979Z,96737.02
2022-12-14T22:08:42.074Z,96736.80
2022-12-14T22:11:45.923Z,96740.44
2022-12-14T22:14:50.103Z,96738.38
2022-12-14T22:17:53.166Z,96741.80
2022-12-14T22:21:03.629Z,96747.04
2022-12-14T22:24:07.607Z,96746.49
2022-12-14T22:27:13.660Z,96745.23
2022-12-14T22:30:16.723Z,96743.64
2022-12-14T22:33:19.801Z,96747.50
2022-12-14T22:36:23.632Z,96753.29
2022-12-14T22:39:26.681Z,96756.56
2022-12-14T22:42:29.658Z,96756.89
2022-12-14T22:45:35.030Z,96757.59
2022-12-14T22:48:38.564Z,96755.30
2022-12-14T22:51:41.572Z,96758.63
2022-12-14T22:54:44.595Z,96753.96
2022-12-14T22:57:53.816Z,96754.13
2022-12-14T23:00:56.952Z,96750.34
2022-12-14T23:04:00.362Z,96748.45
2022-12-14T23:07:04.214Z,96744.14
2022-12-14T23:10:26.054Z,96745.75
2022-12-14T23:13:47.732Z,96746.77
2022-12-14T23:17:09.492Z,96744.99
2022-12-14T23:20:31.178Z,96750.57
2022-12-14T23:23:52.899Z,96754.66
2022-12-14T23:27:15.384Z,96750.67
2022-12-14T23:30:37.222Z,96754.27
2022-12-14T23:33:58.874Z,96755.11
2022-12-14T23:37:20.886Z,96754.85
2022-12-14T23:40:42.988Z,96753.02
2022-12-14T23:44:05.606Z,96755.81
2022-12-14T23:47:27.155Z,96759.95
2022-12-14T23:50:48.452Z,96762.32
2022-12-14T23:54:09.816Z,96768.73
2022-12-14T23:57:31.411Z,96774.59
